Time;durP1;ratioP1;P1;durP2;ratioP2;P2;SDS_P1;SDS_P2;PMS_P1;PMS_P2;Temp;Humidity;BMP_temperature;BMP_pressure;BME280_temperature;BME280_humidity;BME280_pressure;Samples;Min_cycle;Max_cycle;Signal;HPM_P1;HPM_P2
2023/11/20 00:01:22;;;;;;;5.10;4.00;;;;;;;3.06;61.08;99185.87;108313;1254;58737;-58
2023/11/20 00:03:50;;;;;;;4.10;3.50;;;;;;;3.08;61.35;99186.72;108305;1254;60149;-58
2023/11/20 00:06:19;;;;;;;3.80;3.30;;;;;;;3.06;61.21;99181.38;108215;1258;73669;-57
2023/11/20 00:08:47;;;;;;;4.60;3.70;;;;;;;3.05;61.33;99180.70;108317;1251;69603;-58
2023/11/20 00:11:15;;;;;;;5.20;3.60;;;;;;;3.07;61.49;99177.89;108215;1254;71472;-58
2023/11/20 00:13:44;;;;;;;4.20;3.70;;;;;;;3.08;61.34;99180.64;108335;1254;58960;-58
2023/11/20 00:16:12;;;;;;;4.70;4.30;;;;;;;3.06;61.24;99177.23;108382;1253;60382;-58
2023/11/20 00:18:40;;;;;;;5.60;3.90;;;;;;;3.05;61.66;99176.04;108361;1253;74027;-58
2023/11/20 00:21:08;;;;;;;4.40;4.00;;;;;;;3.07;61.63;99175.63;108347;1253;67995;-60
2023/11/20 00:23:35;;;;;;;4.10;3.70;;;;;;;3.09;61.65;99174.75;108315;1252;72631;-58
2023/11/20 00:26:04;;;;;;;3.90;3.40;;;;;;;3.12;61.64;99171.05;108380;1256;58993;-58
2023/11/20 00:28:32;;;;;;;4.00;3.60;;;;;;;3.17;61.44;99175.44;108374;1254;58562;-59
2023/11/20 00:31:00;;;;;;;;;;;;;;;3.18;61.42;99169.36;108407;1254;74571;-58
2023/11/20 00:33:29;;;;;;;3.50;3.00;;;;;;;3.11;61.22;99168.46;108405;1253;69348;-58
2023/11/20 00:35:57;;;;;;;3.90;3.60;;;;;;;3.09;61.73;99169.71;108103;1254;72907;-58
2023/11/20 00:38:25;;;;;;;5.10;3.80;;;;;;;3.12;61.43;99166.54;108087;1251;58978;-59
2023/11/20 00:40:53;;;;;;;;;;;;;;;3.07;61.29;99167.66;108426;1254;60723;-58
2023/11/20 00:43:20;;;;;;;3.40;3.10;;;;;;;3.04;61.59;99170.34;108351;1252;74095;-60
2023/11/20 00:45:48;;;;;;;5.00;4.00;;;;;;;3.07;61.63;99172.55;108195;1253;70306;-58
2023/11/20 00:48:15;;;;;;;;;;;;;;;3.10;61.80;99167.61;108272;1253;72191;-58
2023/11/20 00:50:43;;;;;;;3.60;3.30;;;;;;;3.14;61.73;99161.32;108339;1254;59958;-58
2023/11/20 00:53:12;;;;;;;4.50;3.40;;;;;;;3.15;61.66;99156.62;108412;1252;60775;-58
2023/11/20 00:55:39;;;;;;;5.40;3.60;;;;;;;3.14;61.74;99154.21;108376;1252;73784;-58
2023/11/20 00:58:07;;;;;;;4.50;3.50;;;;;;;3.16;62.05;99151.73;108365;1254;69183;-59
2023/11/20 01:00:34;;;;;;;5.60;4.30;;;;;;;3.18;61.40;99153.98;108411;1252;72383;-58
2023/11/20 01:03:02;;;;;;;;;;;;;;;3.10;61.38;99151.16;108115;1258;58584;-58
2023/11/20 01:05:30;;;;;;;4.00;3.60;;;;;;;3.00;62.08;99140.63;108263;1254;60473;-58
2023/11/20 01:07:58;;;;;;;4.60;3.60;;;;;;;3.09;61.98;99151.17;108387;1253;74064;-58
2023/11/20 01:10:26;;;;;;;4.40;3.30;;;;;;;3.16;62.00;99148.11;108401;1253;69434;-59
2023/11/20 01:12:54;;;;;;;3.60;3.20;;;;;;;3.20;61.92;99148.55;108384;1253;73334;-58
2023/11/20 01:15:22;;;;;;;4.00;3.60;;;;;;;3.22;61.90;99146.59;108266;1252;59380;-59
2023/11/20 01:17:49;;;;;;;;;;;;;;;3.24;62.00;99147.40;108168;1253;60706;-58
2023/11/20 01:20:17;;;;;;;3.50;3.20;;;;;;;3.21;61.77;99144.71;108385;1254;74086;-61
2023/11/20 01:22:45;;;;;;;4.00;3.60;;;;;;;3.21;61.80;99145.39;108369;1257;69208;-58
2023/11/20 01:25:12;;;;;;;6.00;3.70;;;;;;;3.25;61.95;99140.13;108401;1253;72541;-59
2023/11/20 01:27:40;;;;;;;4.40;3.60;;;;;;;3.29;61.65;99136.23;108390;1254;59071;-58
2023/11/20 01:30:09;;;;;;;;;;;;;;;3.28;61.62;99133.98;108374;1253;58738;-58
2023/11/20 01:32:37;;;;;;;5.60;3.80;;;;;;;3.27;61.60;99132.11;108350;1255;73582;-59
2023/11/20 01:35:05;;;;;;;4.70;4.10;;;;;;;3.25;61.68;99130.24;108413;1254;70202;-58
2023/11/20 01:37:33;;;;;;;3.90;3.60;;;;;;;3.25;61.78;99134.05;108322;1254;73256;-58
2023/11/20 01:40:04;;;;;;;4.50;4.10;;;;;;;3.23;61.70;99133.06;108374;1254;59134;-58
2023/11/20 01:42:32;;;;;;;4.60;4.10;;;;;;;3.20;61.77;99132.27;108418;1254;59702;-61
2023/11/20 01:44:59;;;;;;;;;;;;;;;3.15;62.23;99129.07;108394;1252;74651;-58
2023/11/20 01:47:27;;;;;;;3.50;3.20;;;;;;;3.11;62.05;99127.93;108135;1252;69098;-58
2023/11/20 01:49:55;;;;;;;3.40;3.10;;;;;;;3.15;62.34;99127.00;108140;1254;71280;-58
2023/11/20 01:52:23;;;;;;;4.10;3.70;;;;;;;3.20;61.97;99134.52;107859;1254;59041;-58
2023/11/20 01:54:52;;;;;;;4.80;3.80;;;;;;;3.17;62.18;99133.02;108361;1254;59902;-58
2023/11/20 01:57:20;;;;;;;3.80;3.50;;;;;;;3.13;62.20;99133.08;108052;1254;74475;-59
2023/11/20 01:59:47;;;;;;;4.60;4.20;;;;;;;3.13;62.65;99133.27;108401;1252;69616;-58
2023/11/20 02:02:15;;;;;;;7.00;4.20;;;;;;;3.16;62.76;99134.95;108182;1254;72368;-59
2023/11/20 02:04:42;;;;;;;3.80;3.50;;;;;;;3.19;62.78;99129.70;108240;1252;59308;-59
2023/11/20 02:07:10;;;;;;;4.70;4.20;;;;;;;3.20;62.28;99131.75;108155;1254;59682;-59
2023/11/20 02:09:38;;;;;;;4.20;3.80;;;;;;;3.21;62.56;99124.96;108363;1254;73580;-59
2023/11/20 02:12:06;;;;;;;7.60;4.60;;;;;;;3.19;62.62;99119.29;108172;1254;69161;-58
2023/11/20 02:14:34;;;;;;;5.20;4.20;;;;;;;3.20;62.60;99126.03;108295;1254;72485;-59
2023/11/20 02:17:02;;;;;;;4.80;4.00;;;;;;;3.25;62.73;99129.02;107855;1254;60013;-59
2023/11/20 02:19:29;;;;;;;5.20;4.40;;;;;;;3.30;62.56;99125.10;108196;1252;60115;-59
2023/11/20 02:21:57;;;;;;;4.70;4.30;;;;;;;3.32;62.60;99121.95;108121;1255;74571;-58
2023/11/20 02:24:27;;;;;;;4.70;4.10;;;;;;;3.30;62.51;99118.52;108387;1252;69631;-58
2023/11/20 02:27:01;;;;;;;7.50;4.30;;;;;;;3.32;62.70;99122.15;108422;1254;72476;-58
2023/11/20 02:29:31;;;;;;;5.20;4.60;;;;;;;3.34;62.59;99118.44;108325;1252;58987;-58
2023/11/20 02:31:59;;;;;;;4.70;4.20;;;;;;;3.29;62.47;99117.86;108148;1252;59686;-58
2023/11/20 02:34:27;;;;;;;5.10;4.70;;;;;;;3.21;62.69;99119.41;108352;1252;73710;-60
2023/11/20 02:36:58;;;;;;;4.00;3.60;;;;;;;3.13;62.80;99118.38;108348;1252;69186;-57
2023/11/20 02:39:25;;;;;;;4.30;3.90;;;;;;;3.17;63.19;99115.70;108393;1253;73046;-60
2023/11/20 02:41:53;;;;;;;4.30;3.90;;;;;;;3.21;63.17;99115.27;108286;1253;58517;-57
2023/11/20 02:44:21;;;;;;;;;;;;;;;3.26;62.90;99112.54;108406;1253;58990;-58
2023/11/20 02:46:48;;;;;;;5.00;4.50;;;;;;;3.25;62.92;99108.60;108324;1254;74554;-58
2023/11/20 02:49:16;;;;;;;4.70;4.00;;;;;;;3.20;62.92;99101.61;108337;1252;69123;-59
2023/11/20 02:51:44;;;;;;;;;;;;;;;3.16;62.91;99099.08;108439;1254;72409;-58
2023/11/20 02:54:11;;;;;;;7.10;4.60;;;;;;;3.10;63.34;99099.71;108415;1252;61123;-59
2023/11/20 02:56:39;;;;;;;;;;;;;;;3.09;63.13;99095.43;108169;1253;60688;-58
2023/11/20 02:59:08;;;;;;;5.20;4.40;;;;;;;3.07;63.22;99091.48;108414;1252;73599;-59
2023/11/20 03:01:36;;;;;;;4.20;3.90;;;;;;;3.08;63.65;99091.63;108363;1253;69991;-61
2023/11/20 03:04:04;;;;;;;5.20;4.40;;;;;;;3.15;63.44;99088.55;108333;1254;72406;-59
2023/11/20 03:06:32;;;;;;;4.70;3.90;;;;;;;3.17;63.83;99082.96;108376;1254;59006;-59
2023/11/20 03:08:59;;;;;;;4.50;4.10;;;;;;;3.21;63.86;99087.02;108370;1252;60172;-59
2023/11/20 03:11:27;;;;;;;4.80;4.20;;;;;;;3.24;63.56;99080.39;108343;1254;73615;-59
2023/11/20 03:13:55;;;;;;;4.90;4.30;;;;;;;3.27;63.61;99074.43;108476;1254;69164;-59
2023/11/20 03:16:22;;;;;;;5.10;4.30;;;;;;;3.29;63.56;99069.70;108352;1252;72384;-59
2023/11/20 03:18:50;;;;;;;;;;;;;;;3.34;63.52;99066.48;108374;1254;59433;-59
2023/11/20 03:21:18;;;;;;;4.50;4.00;;;;;;;3.36;63.59;99064.54;108348;1254;59452;-59
2023/11/20 03:23:45;;;;;;;5.10;4.60;;;;;;;3.34;63.52;99064.92;108166;1251;73571;-59
2023/11/20 03:26:13;;;;;;;8.80;4.60;;;;;;;3.33;63.31;99064.77;108400;1253;69405;-60
2023/11/20 03:28:40;;;;;;;;;;;;;;;3.31;63.50;99060.99;108454;1251;74031;-59
2023/11/20 03:31:10;;;;;;;4.10;3.80;;;;;;;3.32;63.87;99061.85;108362;1253;59299;-59
2023/11/20 03:33:38;;;;;;;5.20;3.80;;;;;;;3.36;63.60;99055.00;108443;1252;59728;-59
2023/11/20 03:36:06;;;;;;;4.40;4.00;;;;;;;3.41;63.97;99051.23;108349;1253;73694;-59
2023/11/20 03:38:34;;;;;;;5.10;4.60;;;;;;;3.46;63.84;99046.80;108423;1252;69373;-59
2023/11/20 03:41:02;;;;;;;5.00;4.50;;;;;;;3.49;63.59;99043.79;108173;1253;73826;-59
2023/11/20 03:43:29;;;;;;;4.60;4.20;;;;;;;3.49;63.74;99045.50;108369;1253;60155;-59
2023/11/20 03:45:57;;;;;;;4.10;3.80;;;;;;;3.53;63.33;99047.66;108254;1254;59089;-59
2023/11/20 03:48:25;;;;;;;4.40;4.00;;;;;;;3.58;63.43;99041.85;108410;1253;72428;-59
2023/11/20 03:50:53;;;;;;;5.70;4.50;;;;;;;3.63;63.24;99041.90;108376;1253;69024;-59
2023/11/20 03:53:21;;;;;;;5.10;4.60;;;;;;;3.64;63.19;99037.88;108375;1252;71519;-59
2023/11/20 03:55:48;;;;;;;4.30;3.90;;;;;;;3.60;62.97;99038.48;108409;1253;59178;-59
2023/11/20 03:58:16;;;;;;;4.80;4.40;;;;;;;3.59;63.18;99034.88;108421;1252;59802;-59
2023/11/20 04:00:44;;;;;;;5.00;4.40;;;;;;;3.53;63.19;99033.27;108289;1253;72943;-59
2023/11/20 04:03:12;;;;;;;4.80;4.40;;;;;;;3.50;63.65;99032.48;108330;1253;69758;-59
2023/11/20 04:05:39;;;;;;;5.50;4.70;;;;;;;3.53;63.74;99031.55;108345;1253;73425;-59
2023/11/20 04:08:07;;;;;;;4.90;4.50;;;;;;;3.50;63.53;99028.14;108353;1253;59069;-60
2023/11/20 04:10:36;;;;;;;;;;;;;;;3.48;63.70;99027.70;108404;1253;58650;-59
2023/11/20 04:13:04;;;;;;;4.10;3.70;;;;;;;3.48;63.40;99025.78;108282;1254;73496;-59
2023/11/20 04:15:32;;;;;;;5.10;4.60;;;;;;;3.51;63.70;99023.63;108359;1252;69119;-59
2023/11/20 04:18:01;;;;;;;5.20;4.70;;;;;;;3.57;63.54;99025.93;108439;1252;72658;-59
2023/11/20 04:20:29;;;;;;;5.20;4.70;;;;;;;3.56;63.86;99025.42;108271;1253;60004;-59
2023/11/20 04:22:58;;;;;;;5.60;4.90;;;;;;;3.59;63.73;99029.85;108156;1252;60313;-63
2023/11/20 04:25:25;;;;;;;5.50;5.00;;;;;;;3.62;63.52;99029.09;108330;1252;73588;-63
2023/11/20 04:27:53;;;;;;;;;;;;;;;3.64;63.53;99029.90;108389;1252;69418;-63
2023/11/20 04:30:21;;;;;;;6.20;5.20;;;;;;;3.66;63.25;99031.75;108373;1253;73350;-64
2023/11/20 04:32:48;;;;;;;5.00;4.60;;;;;;;3.63;63.03;99031.50;108350;1252;60028;-62
2023/11/20 04:35:16;;;;;;;5.20;4.80;;;;;;;3.61;63.24;99032.75;108400;1253;59215;-63
2023/11/20 04:37:44;;;;;;;;;;;;;;;3.62;63.32;99033.08;108342;1253;72894;-64
2023/11/20 04:40:11;;;;;;;;;;;;;;;3.63;63.41;99029.60;108355;1252;69870;-62
2023/11/20 04:42:39;;;;;;;4.70;4.20;;;;;;;3.65;63.30;99031.11;108383;1252;73138;-61
2023/11/20 04:45:08;;;;;;;;;;;;;;;3.68;63.06;99029.46;108362;1253;59997;-62
2023/11/20 04:47:36;;;;;;;4.40;4.00;;;;;;;3.70;62.99;99025.41;108365;1252;59998;-61
2023/11/20 04:50:05;;;;;;;5.50;4.90;;;;;;;3.68;62.85;99023.73;108341;1252;74172;-62
2023/11/20 04:52:33;;;;;;;4.80;4.40;;;;;;;3.67;62.74;99029.31;108369;1252;69102;-62
2023/11/20 04:55:00;;;;;;;5.70;5.10;;;;;;;3.67;63.31;99029.66;108296;1253;73344;-62
2023/11/20 04:57:28;;;;;;;4.90;4.20;;;;;;;3.68;63.12;99025.30;108328;1252;58577;-61
2023/11/20 04:59:57;;;;;;;5.50;4.90;;;;;;;3.67;63.32;99025.49;108350;1253;60562;-60
2023/11/20 05:02:25;;;;;;;6.60;5.00;;;;;;;3.70;63.35;99021.45;108337;1252;73658;-62
2023/11/20 05:04:54;;;;;;;5.60;5.10;;;;;;;3.67;63.11;99021.84;108376;1252;68321;-62
2023/11/20 05:07:22;;;;;;;6.90;4.90;;;;;;;3.68;63.23;99018.20;108330;1253;72414;-62
2023/11/20 05:09:49;;;;;;;5.00;4.60;;;;;;;3.66;63.00;99014.94;108379;1253;58992;-62
2023/11/20 05:12:17;;;;;;;;;;;;;;;3.67;63.30;99017.02;108340;1252;60809;-62
2023/11/20 05:14:45;;;;;;;;;;;;;;;3.64;63.14;99020.39;108368;1252;73720;-63
2023/11/20 05:17:17;;;;;;;5.00;4.40;;;;;;;3.60;63.18;99020.11;108382;1252;69194;-62
2023/11/20 05:19:45;;;;;;;5.30;4.80;;;;;;;3.63;63.29;99022.83;108374;1253;72465;-63
2023/11/20 05:22:17;;;;;;;5.10;4.40;;;;;;;3.65;63.29;99024.16;108352;1252;58701;-63
2023/11/20 05:24:45;;;;;;;6.30;4.80;;;;;;;3.67;63.34;99026.20;108383;1253;59741;-63
2023/11/20 05:27:13;;;;;;;5.10;4.60;;;;;;;3.66;63.32;99021.88;108362;1252;74437;-63
2023/11/20 05:29:40;;;;;;;5.70;5.20;;;;;;;3.66;63.34;99022.58;108401;1253;69241;-63
2023/11/20 05:32:08;;;;;;;5.60;5.00;;;;;;;3.66;63.50;99024.32;108386;1253;72437;-63
2023/11/20 05:34:37;;;;;;;6.00;5.10;;;;;;;3.65;63.46;99022.77;108341;1253;58968;-63
2023/11/20 05:37:05;;;;;;;7.00;5.80;;;;;;;3.63;63.66;99023.84;108349;1251;59810;-63
2023/11/20 05:39:33;;;;;;;7.50;5.60;;;;;;;3.61;63.70;99026.34;108407;1253;74169;-62
2023/11/20 05:42:01;;;;;;;6.10;5.20;;;;;;;3.54;63.52;99029.42;108347;1252;70265;-63
2023/11/20 05:47:44;;;;;;;6.00;5.40;;;;;;;3.63;63.79;99029.05;101450;1291;600733;-60
2023/11/20 05:50:12;;;;;;;6.10;5.50;;;;;;;3.62;64.10;99032.91;103889;1280;59454;-62
2023/11/20 05:52:39;;;;;;;6.00;5.00;;;;;;;3.66;64.09;99033.31;104022;1268;59877;-61
2023/11/20 05:55:07;;;;;;;6.10;5.40;;;;;;;3.68;64.04;99032.23;103725;1268;72932;-60
2023/11/20 05:57:36;;;;;;;7.20;6.00;;;;;;;3.83;63.93;99035.67;103994;1272;68982;-61
2023/11/20 06:00:08;;;;;;;6.50;5.80;;;;;;;4.13;62.81;99031.09;103844;1266;72466;-60
2023/11/20 06:02:39;;;;;;;7.70;5.70;;;;;;;4.15;62.65;99036.75;103731;1264;59608;-60
2023/11/20 06:05:06;;;;;;;;;;;;;;;3.97;62.85;99036.39;104300;1264;59745;-62
2023/11/20 06:07:36;;;;;;;6.30;5.10;;;;;;;3.84;63.96;99037.03;103622;1278;72248;-62
2023/11/20 06:10:04;;;;;;;;;;;;;;;3.83;63.64;99037.05;104133;1268;70009;-63
2023/11/20 06:12:32;;;;;;;8.00;5.20;;;;;;;3.83;63.90;99038.10;103937;1268;72549;-63
2023/11/20 06:15:00;;;;;;;5.70;5.10;;;;;;;3.82;63.63;99043.33;103916;1268;59771;-60
2023/11/20 06:17:28;;;;;;;6.20;5.50;;;;;;;3.80;63.68;99043.37;104656;1263;59901;-61
2023/11/20 06:19:56;;;;;;;6.80;6.00;;;;;;;3.80;63.76;99040.09;104164;1264;72742;-62
2023/11/20 06:22:24;;;;;;;7.60;5.80;;;;;;;3.89;63.51;99040.39;104713;1257;69092;-61
2023/11/20 06:24:52;;;;;;;;;;;;;;;3.76;63.76;99046.08;104584;1265;72469;-61
2023/11/20 06:27:20;;;;;;;6.50;5.50;;;;;;;3.75;64.12;99050.45;104560;1259;59718;-63
2023/11/20 06:29:48;;;;;;;7.10;5.30;;;;;;;3.75;63.80;99052.35;104452;1257;59727;-61
2023/11/20 06:32:16;;;;;;;7.00;6.00;;;;;;;3.74;63.70;99053.41;104853;1258;73201;-61
2023/11/20 06:34:44;;;;;;;6.70;5.10;;;;;;;3.70;64.03;99049.00;104667;1253;69216;-61
2023/11/20 06:37:12;;;;;;;7.00;5.30;;;;;;;3.72;64.13;99052.59;104692;1253;73059;-61
2023/11/20 06:39:40;;;;;;;8.00;6.20;;;;;;;3.73;64.18;99052.58;104559;1253;62560;-62
2023/11/20 06:42:08;;;;;;;7.10;5.90;;;;;;;3.65;64.50;99051.39;104464;1258;59738;-61
2023/11/20 06:44:38;;;;;;;8.50;6.30;;;;;;;3.70;64.63;99059.39;104405;1265;73302;-59
2023/11/20 06:47:09;;;;;;;7.10;6.00;;;;;;;3.71;64.68;99055.56;104756;1256;69398;-59
2023/11/20 06:49:39;;;;;;;7.00;5.80;;;;;;;3.74;64.98;99056.88;104388;1257;73028;-60
2023/11/20 06:52:08;;;;;;;9.80;6.10;;;;;;;3.71;64.80;99058.85;104540;1253;59784;-64
2023/11/20 06:54:35;;;;;;;9.90;6.90;;;;;;;3.65;64.81;99059.85;104868;1258;60160;-59
2023/11/20 06:57:04;;;;;;;8.40;6.30;;;;;;;3.60;65.37;99060.15;104701;1257;73561;-59
2023/11/20 06:59:32;;;;;;;7.10;6.40;;;;;;;3.58;65.45;99063.68;105130;1256;69726;-60
2023/11/20 07:02:00;;;;;;;7.60;5.60;;;;;;;3.54;65.51;99064.64;104659;1257;72953;-59
2023/11/20 07:04:28;;;;;;;;;;;;;;;3.54;65.82;99058.75;105083;1257;59700;-59
2023/11/20 07:06:56;;;;;;;7.90;5.70;;;;;;;3.51;66.08;99060.02;104527;1253;59808;-60
2023/11/20 07:09:28;;;;;;;;;;;;;;;3.57;66.27;99054.69;104694;1253;74310;-60
2023/11/20 07:11:57;;;;;;;8.70;5.70;;;;;;;3.65;66.24;99055.72;104396;1259;70167;-59
2023/11/20 07:14:25;;;;;;;6.80;6.00;;;;;;;3.63;65.57;99058.52;104588;1253;72454;-60
2023/11/20 07:16:52;;;;;;;;;;;;;;;3.66;66.39;99052.39;104433;1258;61983;-59
2023/11/20 07:19:21;;;;;;;8.70;6.90;;;;;;;3.76;67.26;99053.70;104660;1253;59763;-59
2023/11/20 07:21:49;;;;;;;7.60;6.40;;;;;;;3.84;67.13;99051.94;104474;1254;73379;-60
2023/11/20 07:24:17;;;;;;;;;;;;;;;3.89;66.84;99045.56;104545;1269;69069;-59
2023/11/20 07:26:45;;;;;;;8.60;7.10;;;;;;;3.94;66.65;99047.18;104584;1252;72295;-61
2023/11/20 07:29:57;;;;;;;7.30;6.60;;;;;;;3.43;68.74;99044.05;101378;1292;601825;-61
2023/11/20 07:32:24;;;;;;;7.80;7.00;;;;;;;3.86;66.29;99042.70;103468;1269;59377;-61
2023/11/20 07:34:52;;;;;;;8.20;6.50;;;;;;;3.88;66.45;99039.55;103580;1272;60164;-60
2023/11/20 07:37:23;;;;;;;10.40;6.00;;;;;;;3.97;66.68;99038.61;103559;1271;71788;-60
2023/11/20 07:39:50;;;;;;;6.70;6.10;;;;;;;4.08;66.72;99037.11;104020;1262;69844;-60
2023/11/20 07:42:19;;;;;;;8.90;6.60;;;;;;;4.17;66.59;99039.31;104594;1263;72578;-59
2023/11/20 07:44:48;;;;;;;8.20;6.40;;;;;;;4.20;66.69;99040.63;104010;1262;226916;-60
2023/11/20 07:47:16;;;;;;;13.00;6.80;;;;;;;4.23;66.72;99037.08;104204;1261;60132;-59
2023/11/20 07:49:43;;;;;;;;;;;;;;;4.24;66.77;99035.66;104202;1257;73552;-59
2023/11/20 07:52:12;;;;;;;12.70;6.80;;;;;;;4.23;66.98;99029.77;104210;1261;69399;-60
2023/11/20 07:54:40;;;;;;;8.20;6.80;;;;;;;4.19;67.31;99033.36;105147;1258;71714;-60
2023/11/20 07:57:11;;;;;;;10.50;7.80;;;;;;;4.29;67.71;99028.42;104176;1262;59959;-60
2023/11/20 07:59:39;;;;;;;8.80;7.40;;;;;;;4.45;66.91;99025.89;104418;1257;59619;-60
2023/11/20 08:02:08;;;;;;;9.20;7.00;;;;;;;4.55;66.60;99025.09;104677;1262;71845;-61
2023/11/20 08:04:36;;;;;;;10.20;7.40;;;;;;;4.62;66.42;99021.59;104293;1258;68769;-60
2023/11/20 08:07:04;;;;;;;;;;;;;;;4.70;66.02;99020.01;104835;1262;73147;-59
2023/11/20 08:09:35;;;;;;;11.60;8.10;;;;;;;4.75;66.32;99017.08;104282;1262;62880;-59
2023/11/20 08:12:06;;;;;;;11.40;8.70;;;;;;;4.81;65.57;99013.09;104159;1263;59830;-61
2023/11/20 08:14:34;;;;;;;;;;;;;;;4.84;65.26;99011.41;104398;1259;72920;-62
2023/11/20 08:17:03;;;;;;;16.30;9.00;;;;;;;4.80;65.43;99012.41;104256;1262;69364;-61
2023/11/20 08:19:30;;;;;;;13.50;8.80;;;;;;;4.75;65.92;99007.86;104344;1272;72750;-61
2023/11/20 08:21:58;;;;;;;13.20;9.50;;;;;;;4.78;65.92;99005.86;104655;1261;59887;-61
2023/11/20 08:24:26;;;;;;;;;;;;;;;4.78;66.13;99000.81;104548;1257;59763;-62
2023/11/20 08:26:54;;;;;;;11.50;8.80;;;;;;;4.78;66.33;99001.19;104530;1257;72869;-61
2023/11/20 08:29:21;;;;;;;16.30;10.30;;;;;;;4.80;66.61;98999.37;104188;1262;69999;-60
2023/11/20 08:31:49;;;;;;;;;;;;;;;4.82;66.04;98999.50;104435;1260;72305;-61
2023/11/20 08:34:17;;;;;;;13.60;8.90;;;;;;;4.82;66.77;98999.48;104615;1260;59682;-60
2023/11/20 08:36:49;;;;;;;11.90;9.60;;;;;;;4.88;66.27;98997.58;104083;1262;59959;-60
2023/11/20 08:39:19;;;;;;;11.50;9.10;;;;;;;4.94;66.26;98995.83;104140;1262;72913;-60
2023/11/20 08:41:47;;;;;;;14.40;9.90;;;;;;;5.00;65.65;98991.66;104243;1264;70394;-60
2023/11/20 08:44:15;;;;;;;10.80;8.90;;;;;;;5.04;66.11;98991.55;104510;1257;72425;-60
2023/11/20 08:46:43;;;;;;;12.00;9.20;;;;;;;5.13;66.30;98992.48;104370;1260;60646;-60
2023/11/20 08:49:11;;;;;;;13.00;8.60;;;;;;;5.21;66.00;98993.61;104070;1273;59832;-63
2023/11/20 08:51:39;;;;;;;12.60;9.30;;;;;;;5.31;65.86;98997.66;104081;1262;73103;-63
2023/11/20 08:54:18;;;;;;;13.90;9.70;;;;;;;5.43;66.15;99001.81;104427;1259;68923;-60
2023/11/20 08:56:46;;;;;;;17.10;9.40;;;;;;;5.45;65.69;98999.48;104164;1259;72994;-60
2023/11/20 08:59:14;;;;;;;;;;;;;;;5.47;65.29;98994.36;104149;1258;59824;-60
2023/11/20 09:01:42;;;;;;;;;;;;;;;5.48;65.45;98998.69;104002;1262;59736;-61
2023/11/20 09:04:10;;;;;;;11.70;8.20;;;;;;;5.51;65.23;98987.99;104303;1259;73742;-60
2023/11/20 09:06:38;;;;;;;14.70;9.60;;;;;;;5.46;64.74;98990.05;104506;1258;69897;-61
2023/11/20 09:09:06;;;;;;;;;;;;;;;5.42;64.57;98993.48;104574;1260;71447;-60
2023/11/20 09:11:34;;;;;;;10.30;8.50;;;;;;;5.42;65.10;98991.58;104169;1257;59842;-60
2023/11/20 09:14:01;;;;;;;15.30;9.00;;;;;;;5.47;64.93;98983.77;104258;1257;59749;-58
2023/11/20 09:16:29;;;;;;;;;;;;;;;5.51;64.60;98978.60;104250;1259;73084;-60
2023/11/20 09:18:58;;;;;;;15.00;8.90;;;;;;;5.55;64.59;98973.42;104070;1261;69105;-60
2023/11/20 09:21:26;;;;;;;13.20;8.50;;;;;;;5.56;64.50;98970.61;104942;1262;73122;-62
2023/11/20 09:23:54;;;;;;;;;;;;;;;5.59;64.07;98967.20;104363;1261;59734;-60
2023/11/20 09:26:22;;;;;;;;;;;;;;;5.57;63.88;98964.30;104461;1257;60670;-62
2023/11/20 09:28:49;;;;;;;;;;;;;;;5.57;64.00;98962.75;104353;1257;72532;-61
2023/11/20 09:31:17;;;;;;;10.80;8.00;;;;;;;5.62;64.20;98966.03;103946;1265;69442;-63
2023/11/20 09:33:46;;;;;;;11.40;8.50;;;;;;;5.69;63.71;98963.40;104165;1257;71758;-62
2023/11/20 09:36:14;;;;;;;13.00;8.50;;;;;;;5.75;63.82;98962.52;104461;1259;59780;-62
2023/11/20 09:38:45;;;;;;;13.60;8.80;;;;;;;5.91;63.97;98959.18;104650;1268;59852;-61
2023/11/20 09:41:13;;;;;;;12.10;9.00;;;;;;;6.04;63.83;98955.11;104417;1260;74023;-62
2023/11/20 09:43:43;;;;;;;14.40;9.70;;;;;;;6.17;63.78;98953.59;104410;1259;69107;-61
2023/11/20 09:46:11;;;;;;;11.60;8.50;;;;;;;6.28;63.38;98951.27;104230;1259;72399;-61
2023/11/20 09:48:39;;;;;;;14.60;9.70;;;;;;;6.36;63.09;98951.68;104317;1258;60652;-62
2023/11/20 09:51:10;;;;;;;11.30;9.00;;;;;;;6.53;62.75;98950.00;104346;1259;60810;-63
2023/11/20 09:53:41;;;;;;;10.60;8.80;;;;;;;6.65;62.20;98947.48;104226;1259;72874;-62
2023/11/20 09:56:10;;;;;;;11.80;9.00;;;;;;;6.73;62.06;98945.45;104745;1256;70073;-61
2023/11/20 09:58:43;;;;;;;14.70;9.70;;;;;;;6.84;61.91;98943.25;104416;1256;73668;-62
2023/11/20 10:01:13;;;;;;;13.90;8.60;;;;;;;6.94;61.68;98945.15;105118;1256;59686;-62
2023/11/20 10:03:42;;;;;;;14.90;9.30;;;;;;;7.05;61.42;98948.04;104362;1256;60708;-62
2023/11/20 10:06:16;;;;;;;13.20;9.50;;;;;;;7.11;61.03;98945.69;104843;1260;72893;-62
2023/11/20 10:08:45;;;;;;;11.90;9.00;;;;;;;7.18;60.57;98941.95;104375;1256;69519;-63
2023/11/20 10:11:19;;;;;;;15.40;9.20;;;;;;;7.22;60.56;98931.85;104859;1261;72908;-61
2023/11/20 10:13:47;;;;;;;11.30;7.90;;;;;;;7.35;60.10;98934.79;104832;1259;59732;-62
2023/11/20 10:16:26;;;;;;;11.10;8.90;;;;;;;7.45;60.11;98935.08;104930;1259;60052;-61
2023/11/20 10:18:55;;;;;;;10.40;7.90;;;;;;;7.60;60.10;98929.41;104677;1256;73018;-61
2023/11/20 10:21:23;;;;;;;9.10;7.00;;;;;;;7.66;58.99;98926.19;104245;1262;70081;-62
2023/11/20 10:23:54;;;;;;;9.70;7.80;;;;;;;7.67;58.87;98925.27;104906;1257;73313;-62
2023/11/20 10:26:24;;;;;;;11.90;7.80;;;;;;;7.79;59.07;98924.77;104328;1268;59623;-62
2023/11/20 10:28:54;;;;;;;11.40;8.00;;;;;;;7.85;58.62;98926.59;104712;1256;60297;-61
2023/11/20 10:31:23;;;;;;;10.90;7.30;;;;;;;7.94;58.34;98932.31;104176;1262;76340;-62
2023/11/20 10:34:06;;;;;;;9.70;8.20;;;;;;;7.96;58.23;98928.39;104268;1262;69761;-62
2023/11/20 10:36:35;;;;;;;13.70;8.00;;;;;;;7.93;58.07;98928.70;105023;1259;71147;-61
2023/11/20 10:39:03;;;;;;;8.80;7.30;;;;;;;7.87;57.92;98931.23;104706;1257;59637;-61
2023/11/20 10:41:31;;;;;;;10.70;6.90;;;;;;;7.89;58.08;98921.88;104264;1262;60476;-59
2023/11/20 10:43:59;;;;;;;7.90;7.00;;;;;;;7.88;57.24;98928.21;104871;1257;72849;-60
2023/11/20 10:46:26;;;;;;;12.20;7.10;;;;;;;7.86;57.61;98930.42;104975;1256;68217;-59
2023/11/20 10:48:54;;;;;;;;;;;;;;;7.87;57.31;98929.48;104691;1265;71521;-60
2023/11/20 10:51:23;;;;;;;6.90;6.20;;;;;;;7.91;57.45;98931.06;104693;1271;59815;-59
2023/11/20 10:54:04;;;;;;;11.30;6.60;;;;;;;7.98;57.29;98934.04;104280;1262;59716;-60
2023/11/20 10:56:32;;;;;;;7.40;5.60;;;;;;;8.04;56.72;98932.27;104887;1260;73001;-61
2023/11/20 10:59:05;;;;;;;9.20;7.20;;;;;;;8.09;56.47;98932.56;104859;1260;69543;-60
2023/11/20 11:01:32;;;;;;;7.50;6.70;;;;;;;8.14;56.79;98931.97;104562;1258;73577;-60
2023/11/20 11:04:01;;;;;;;10.40;7.10;;;;;;;8.27;56.41;98930.16;104899;1258;59617;-61
2023/11/20 11:06:30;;;;;;;7.60;6.80;;;;;;;8.36;56.49;98930.82;104775;1258;60363;-59
2023/11/20 11:08:58;;;;;;;7.70;6.70;;;;;;;8.40;56.15;98932.56;104604;1257;72852;-60
2023/11/20 11:11:26;;;;;;;9.70;6.50;;;;;;;8.46;55.78;98931.61;104310;1269;70131;-60
2023/11/20 11:13:54;;;;;;;7.30;6.50;;;;;;;8.54;55.75;98932.14;104328;1259;72564;-61
2023/11/20 11:16:38;;;;;;;7.70;6.30;;;;;;;8.54;55.00;98931.77;105057;1256;59919;-61
2023/11/20 11:19:06;;;;;;;6.60;5.80;;;;;;;8.53;55.11;98927.45;104308;1256;60312;-60
2023/11/20 11:22:01;;;;;;;7.80;6.40;;;;;;;8.64;55.04;98929.25;104188;1261;73180;-60
2023/11/20 11:24:32;;;;;;;8.60;5.40;;;;;;;8.74;54.71;98925.98;104814;1257;70015;-60
2023/11/20 11:27:18;;;;;;;6.50;5.50;;;;;;;8.79;54.12;98921.37;104707;1262;73568;-59
2023/11/20 11:29:49;;;;;;;6.30;5.00;;;;;;;8.82;53.44;98920.21;105069;1259;59750;-60
2023/11/20 11:32:29;;;;;;;7.00;4.80;;;;;;;8.83;53.01;98918.92;104497;1260;59791;-61
2023/11/20 11:35:17;;;;;;;9.80;5.10;;;;;;;8.76;52.71;98913.68;104845;1256;72856;-60
2023/11/20 11:38:06;;;;;;;8.90;5.70;;;;;;;8.74;52.92;98918.13;104770;1260;68066;-63
2023/11/20 11:40:40;;;;;;;5.20;4.70;;;;;;;8.77;53.02;98915.86;104941;1258;73440;-60
2023/11/20 11:43:17;;;;;;;5.70;5.20;;;;;;;8.81;52.91;98913.95;104885;1256;60567;-60
2023/11/20 11:45:47;;;;;;;5.20;4.70;;;;;;;8.79;52.68;98908.95;104369;1257;60932;-60
2023/11/20 11:48:16;;;;;;;8.70;4.80;;;;;;;8.81;52.84;98912.39;104635;1263;74626;-60
2023/11/20 11:50:47;;;;;;;5.00;4.40;;;;;;;8.85;52.65;98907.98;104746;1260;70332;-60
2023/11/20 11:53:15;;;;;;;4.60;4.20;;;;;;;8.87;51.99;98909.64;104272;1261;72383;-60